Time;durP1;ratioP1;P1;durP2;ratioP2;P2;SDS_P1;SDS_P2;PMS_P1;PMS_P2;Temp;Humidity;BMP_temperature;BMP_pressure;BME280_temperature;BME280_humidity;BME280_pressure;Samples;Min_cycle;Max_cycle;Signal;HPM_P1;HPM_P2
2021/06/07 00:02:09;;;;;;;2.40;1.60;;;;;;;;;;4994059;28;20409;-68
2021/06/07 00:04:35;;;;;;;2.87;2.20;;;;;;;;;;4991609;28;20464;-68
2021/06/07 00:07:02;;;;;;;2.90;2.27;;;;;;;;;;4993944;28;20777;-68
2021/06/07 00:09:28;;;;;;;2.37;1.80;;;;;;;;;;4978189;28;20972;-68
2021/06/07 00:11:55;;;;;;;2.87;2.20;;;;;;;;;;4974270;28;20413;-68
2021/06/07 00:14:23;;;;;;;3.80;1.97;;;;;;;;;;4987470;28;20440;-68
2021/06/07 00:16:49;;;;;;;3.83;2.20;;;;;;;;;;4993543;28;20405;-69
2021/06/07 00:19:17;;;;;;;3.67;2.40;;;;;;;;;;4980178;28;20449;-68
2021/06/07 00:21:43;;;;;;;4.03;2.40;;;;;;;;;;4973989;28;20910;-66
2021/06/07 00:24:10;;;;;;;3.23;2.40;;;;;;;;;;4974237;28;20461;-68
2021/06/07 00:26:36;;;;;;;3.20;2.30;;;;;;;;;;4980808;28;20459;-67
2021/06/07 00:29:03;;;;;;;2.83;2.07;;;;;;;;;;4981381;28;20457;-67
2021/06/07 00:31:29;;;;;;;3.37;2.27;;;;;;;;;;4974234;28;20817;-67
2021/06/07 00:33:55;;;;;;;3.77;2.47;;;;;;;;;;4982784;28;20520;-67
2021/06/07 00:36:22;;;;;;;3.40;2.40;;;;;;;;;;4993480;28;20432;-67
2021/06/07 00:38:49;;;;;;;3.20;2.20;;;;;;;;;;4990963;28;20495;-67
2021/06/07 00:41:15;;;;;;;3.17;2.43;;;;;;;;;;4993365;28;20475;-67
2021/06/07 00:43:41;;;;;;;3.23;2.17;;;;;;;;;;4985531;28;20456;-67
2021/06/07 00:46:07;;;;;;;4.00;2.73;;;;;;;;;;4974021;28;20405;-67
2021/06/07 00:48:34;;;;;;;3.00;2.40;;;;;;;;;;4979522;28;20506;-67
2021/06/07 00:51:02;;;;;;;3.27;2.20;;;;;;;;;;4993393;28;20897;-68
2021/06/07 00:53:28;;;;;;;3.90;2.20;;;;;;;;;;4992330;28;20433;-68
2021/06/07 00:56:01;;;;;;;2.67;2.13;;;;;;;;;;4993293;28;20405;-67
2021/06/07 00:58:35;;;;;;;3.33;2.13;;;;;;;;;;4992519;28;20494;-67
2021/06/07 01:01:02;;;;;;;2.53;1.77;;;;;;;;;;4990780;28;20431;-67
2021/06/07 01:03:29;;;;;;;2.93;2.13;;;;;;;;;;4990783;28;20460;-67
2021/06/07 01:05:55;;;;;;;3.00;2.20;;;;;;;;;;4993283;28;20405;-67
2021/06/07 01:08:22;;;;;;;4.83;2.50;;;;;;;;;;4989432;28;20448;-66
2021/06/07 01:10:48;;;;;;;2.43;1.97;;;;;;;;;;4973546;28;20397;-67
2021/06/07 01:13:15;;;;;;;3.80;2.27;;;;;;;;;;4986482;28;20420;-69
2021/06/07 01:15:42;;;;;;;3.70;1.90;;;;;;;;;;4992637;28;20440;-67
2021/06/07 01:18:08;;;;;;;2.50;2.30;;;;;;;;;;4997399;28;20455;-66
2021/06/07 01:20:34;;;;;;;2.53;1.97;;;;;;;;;;4979787;28;20417;-66
2021/06/07 01:23:00;;;;;;;2.83;2.53;;;;;;;;;;4977149;28;20449;-67
2021/06/07 01:25:28;;;;;;;3.27;2.80;;;;;;;;;;4977401;28;20421;-66
2021/06/07 01:27:55;;;;;;;2.90;2.43;;;;;;;;;;4977060;28;20432;-66
2021/06/07 01:30:24;;;;;;;2.80;2.50;;;;;;;;;;4990697;28;20424;-66
2021/06/07 01:32:50;;;;;;;3.10;2.40;;;;;;;;;;4996464;28;20979;-66
2021/06/07 01:35:16;;;;;;;3.03;2.43;;;;;;;;;;4982801;28;20509;-66
2021/06/07 01:37:43;;;;;;;4.03;2.53;;;;;;;;;;4976925;28;20401;-66
2021/06/07 01:40:15;;;;;;;3.93;1.80;;;;;;;;;;4988584;28;20420;-66
2021/06/07 01:42:41;;;;;;;2.97;2.17;;;;;;;;;;4996356;28;20510;-66
2021/06/07 01:45:10;;;;;;;4.00;2.70;;;;;;;;;;4993700;28;20424;-66
2021/06/07 01:47:36;;;;;;;3.20;2.80;;;;;;;;;;4990038;28;20460;-66
2021/06/07 01:50:05;;;;;;;3.60;2.27;;;;;;;;;;4986025;28;20427;-66
2021/06/07 01:52:31;;;;;;;3.27;2.20;;;;;;;;;;4996386;28;20773;-66
2021/06/07 01:54:57;;;;;;;3.10;2.60;;;;;;;;;;4995023;28;20940;-66
2021/06/07 01:57:23;;;;;;;3.53;2.80;;;;;;;;;;4996028;28;20921;-66
2021/06/07 01:59:49;;;;;;;3.27;2.77;;;;;;;;;;4994801;28;20800;-66
2021/06/07 02:02:15;;;;;;;3.20;2.33;;;;;;;;;;4993131;28;20420;-67
2021/06/07 02:04:41;;;;;;;4.60;2.90;;;;;;;;;;4994972;28;20494;-67
2021/06/07 02:07:07;;;;;;;3.43;2.57;;;;;;;;;;4995717;28;20400;-67
2021/06/07 02:09:33;;;;;;;3.30;2.77;;;;;;;;;;4994666;28;20440;-67
2021/06/07 02:11:59;;;;;;;3.03;2.73;;;;;;;;;;4995716;28;20735;-67
2021/06/07 02:14:25;;;;;;;3.40;2.43;;;;;;;;;;4994612;28;20511;-67
2021/06/07 02:16:51;;;;;;;3.47;2.80;;;;;;;;;;4995995;28;20817;-67
2021/06/07 02:19:17;;;;;;;3.80;2.53;;;;;;;;;;4979995;28;20804;-67
2021/06/07 02:21:43;;;;;;;3.27;2.47;;;;;;;;;;4974855;28;20941;-67
2021/06/07 02:24:10;;;;;;;3.67;2.60;;;;;;;;;;4989929;28;20452;-67
2021/06/07 02:26:36;;;;;;;2.93;2.20;;;;;;;;;;4995538;28;20543;-67
2021/06/07 02:29:07;;;;;;;3.40;2.60;;;;;;;;;;4994012;28;20480;-66
2021/06/07 02:31:34;;;;;;;3.83;2.57;;;;;;;;;;4995336;28;20404;-67
2021/06/07 02:34:01;;;;;;;3.97;2.83;;;;;;;;;;4982671;28;20484;-67
2021/06/07 02:36:29;;;;;;;3.70;3.07;;;;;;;;;;4975864;28;20412;-67
2021/06/07 02:38:55;;;;;;;5.67;2.80;;;;;;;;;;4987022;28;20445;-66
2021/06/07 02:41:22;;;;;;;7.20;2.73;;;;;;;;;;4995422;28;20927;-66
2021/06/07 02:43:48;;;;;;;4.43;2.93;;;;;;;;;;4987532;28;20465;-66
2021/06/07 02:46:15;;;;;;;5.00;2.67;;;;;;;;;;4976368;28;20434;-66
2021/06/07 02:48:41;;;;;;;3.70;2.50;;;;;;;;;;4978561;28;20946;-65
2021/06/07 02:51:07;;;;;;;3.50;2.57;;;;;;;;;;4994836;28;20447;-66
2021/06/07 02:53:33;;;;;;;2.97;2.47;;;;;;;;;;4986603;28;20429;-66
2021/06/07 02:55:59;;;;;;;2.63;2.20;;;;;;;;;;4975628;28;20409;-66
2021/06/07 02:58:25;;;;;;;3.20;2.43;;;;;;;;;;4975329;28;20445;-66
2021/06/07 03:00:53;;;;;;;3.10;2.60;;;;;;;;;;4985742;28;20763;-66
2021/06/07 03:03:19;;;;;;;3.10;2.50;;;;;;;;;;4992484;28;20496;-66
2021/06/07 03:05:46;;;;;;;8.23;2.70;;;;;;;;;;4994717;28;20458;-66
2021/06/07 03:08:14;;;;;;;2.93;2.23;;;;;;;;;;4989488;28;20922;-66
2021/06/07 03:10:41;;;;;;;3.03;2.73;;;;;;;;;;4975333;28;20961;-67
2021/06/07 03:13:07;;;;;;;3.93;2.90;;;;;;;;;;4978240;28;20816;-66
2021/06/07 03:15:33;;;;;;;3.60;2.90;;;;;;;;;;4994682;28;20893;-67
2021/06/07 03:17:59;;;;;;;3.40;2.70;;;;;;;;;;4993461;28;20454;-67
2021/06/07 03:20:27;;;;;;;4.60;2.53;;;;;;;;;;4994529;28;20404;-67
2021/06/07 03:22:58;;;;;;;2.90;2.60;;;;;;;;;;4993654;28;20456;-67
2021/06/07 03:25:24;;;;;;;2.90;2.30;;;;;;;;;;4994486;28;20458;-67
2021/06/07 03:27:52;;;;;;;2.83;2.33;;;;;;;;;;4991442;28;20453;-67
2021/06/07 03:30:19;;;;;;;3.00;2.50;;;;;;;;;;4975137;28;20409;-67
2021/06/07 03:32:45;;;;;;;6.30;2.83;;;;;;;;;;4974617;28;20778;-67
2021/06/07 03:35:13;;;;;;;3.87;2.60;;;;;;;;;;4994037;28;20443;-67
2021/06/07 03:37:40;;;;;;;4.50;3.20;;;;;;;;;;4991155;28;20879;-67
2021/06/07 03:40:08;;;;;;;5.80;3.10;;;;;;;;;;4975005;28;20808;-67
2021/06/07 03:42:34;;;;;;;5.03;3.20;;;;;;;;;;4974563;28;20508;-66
2021/06/07 03:45:00;;;;;;;4.23;3.43;;;;;;;;;;4973355;28;20508;-67
2021/06/07 03:47:26;;;;;;;5.43;2.80;;;;;;;;;;4974607;28;20397;-67
2021/06/07 03:49:52;;;;;;;3.37;3.00;;;;;;;;;;4990416;28;20793;-67
2021/06/07 03:52:18;;;;;;;7.07;4.00;;;;;;;;;;4994232;28;20463;-67
2021/06/07 03:54:44;;;;;;;3.67;2.60;;;;;;;;;;4992934;28;20425;-67
2021/06/07 03:57:10;;;;;;;3.63;3.33;;;;;;;;;;4993814;28;20541;-67
2021/06/07 03:59:36;;;;;;;3.57;2.47;;;;;;;;;;4992712;28;20531;-67
2021/06/07 04:02:07;;;;;;;2.80;2.20;;;;;;;;;;4993797;28;20411;-67
2021/06/07 04:04:33;;;;;;;2.47;2.27;;;;;;;;;;4980026;28;20492;-67
2021/06/07 04:06:59;;;;;;;3.67;2.50;;;;;;;;;;4974360;28;20488;-67
2021/06/07 04:09:26;;;;;;;2.53;2.00;;;;;;;;;;4984453;28;20482;-68
2021/06/07 04:11:52;;;;;;;3.77;2.23;;;;;;;;;;4993542;28;20443;-67
2021/06/07 04:14:18;;;;;;;4.30;2.53;;;;;;;;;;4982303;28;20437;-67
2021/06/07 04:16:45;;;;;;;2.97;2.17;;;;;;;;;;4974504;28;20824;-67
2021/06/07 04:19:11;;;;;;;2.83;2.23;;;;;;;;;;4982987;28;20487;-67
2021/06/07 04:21:38;;;;;;;3.40;2.90;;;;;;;;;;4993629;28;20417;-67
2021/06/07 04:24:04;;;;;;;5.13;2.37;;;;;;;;;;4992549;28;20492;-67
2021/06/07 04:26:30;;;;;;;3.20;2.53;;;;;;;;;;4993577;28;20397;-67
2021/06/07 04:28:56;;;;;;;3.63;2.50;;;;;;;;;;4991320;28;20444;-67
2021/06/07 04:31:22;;;;;;;3.50;2.10;;;;;;;;;;4993738;28;20495;-67
2021/06/07 04:33:48;;;;;;;2.93;1.90;;;;;;;;;;4992406;28;20428;-67
2021/06/07 04:36:15;;;;;;;2.90;2.30;;;;;;;;;;4993472;28;20497;-67
2021/06/07 04:38:41;;;;;;;4.30;2.50;;;;;;;;;;4992295;28;20491;-67
2021/06/07 04:41:07;;;;;;;3.60;2.47;;;;;;;;;;4992158;28;20413;-67
2021/06/07 04:43:33;;;;;;;2.80;1.93;;;;;;;;;;4988019;28;20461;-67
2021/06/07 04:45:59;;;;;;;2.70;2.10;;;;;;;;;;4992140;28;20913;-68
2021/06/07 04:48:25;;;;;;;2.67;2.17;;;;;;;;;;5006923;23;20436;-69
2021/06/07 04:50:52;;;;;;;4.87;2.13;;;;;;;;;;4991580;28;20428;-69
2021/06/07 04:53:18;;;;;;;3.63;2.20;;;;;;;;;;4983486;28;20425;-69
2021/06/07 04:55:46;;;;;;;2.90;1.97;;;;;;;;;;4997840;28;20409;-70
2021/06/07 04:58:12;;;;;;;3.97;2.20;;;;;;;;;;4995403;28;20482;-70
2021/06/07 05:00:39;;;;;;;2.73;2.00;;;;;;;;;;5003989;28;20400;-70
2021/06/07 05:03:05;;;;;;;3.60;2.87;;;;;;;;;;5005128;28;20555;-70
2021/06/07 05:05:32;;;;;;;10.60;7.73;;;;;;;;;;5006978;28;20428;-70
2021/06/07 05:07:58;;;;;;;4.27;2.10;;;;;;;;;;4993152;28;20447;-69
2021/06/07 05:10:24;;;;;;;2.60;2.10;;;;;;;;;;4999405;28;20881;-69
2021/06/07 05:12:50;;;;;;;3.10;2.33;;;;;;;;;;4996252;28;20404;-69
2021/06/07 05:15:17;;;;;;;9.40;2.13;;;;;;;;;;4996909;28;20404;-70
2021/06/07 05:17:43;;;;;;;2.57;1.80;;;;;;;;;;4980074;28;20429;-70
2021/06/07 05:20:11;;;;;;;4.27;2.40;;;;;;;;;;4977521;28;20441;-69
2021/06/07 05:22:37;;;;;;;2.90;2.03;;;;;;;;;;4977233;28;20772;-69
2021/06/07 05:25:04;;;;;;;3.93;2.20;;;;;;;;;;4991863;28;20436;-70
2021/06/07 05:27:30;;;;;;;2.60;1.83;;;;;;;;;;4995405;28;20921;-69
2021/06/07 05:29:57;;;;;;;3.93;1.87;;;;;;;;;;4995980;28;20467;-69
2021/06/07 05:32:23;;;;;;;2.37;1.63;;;;;;;;;;4996835;28;20432;-69
2021/06/07 05:34:49;;;;;;;2.57;1.70;;;;;;;;;;4984743;28;20429;-69
2021/06/07 05:37:16;;;;;;;2.30;1.90;;;;;;;;;;4977442;28;20961;-69
2021/06/07 05:39:42;;;;;;;1.90;1.30;;;;;;;;;;4987284;28;20881;-70
2021/06/07 05:42:08;;;;;;;2.00;1.50;;;;;;;;;;4996656;28;20432;-69
2021/06/07 05:44:34;;;;;;;2.07;1.27;;;;;;;;;;4985769;28;20544;-69
2021/06/07 05:47:00;;;;;;;2.77;1.73;;;;;;;;;;4977128;28;20447;-69
2021/06/07 05:49:26;;;;;;;3.13;1.67;;;;;;;;;;4984278;28;21017;-69
2021/06/07 05:51:52;;;;;;;1.87;1.30;;;;;;;;;;4996490;28;20775;-69
2021/06/07 05:54:18;;;;;;;1.80;1.10;;;;;;;;;;4995982;28;20519;-70
2021/06/07 05:56:45;;;;;;;2.30;1.40;;;;;;;;;;4995298;28;20420;-70
2021/06/07 05:59:11;;;;;;;3.83;1.90;;;;;;;;;;4995173;28;20631;-70
2021/06/07 06:01:37;;;;;;;2.57;1.83;;;;;;;;;;4996123;28;20404;-70
2021/06/07 06:04:03;;;;;;;1.83;1.20;;;;;;;;;;4995509;28;20456;-70
2021/06/07 06:06:31;;;;;;;2.73;1.30;;;;;;;;;;4997108;28;20424;-70
2021/06/07 06:08:58;;;;;;;4.03;1.80;;;;;;;;;;4996253;28;20452;-70
2021/06/07 06:11:24;;;;;;;2.23;1.43;;;;;;;;;;4994727;28;20419;-69
2021/06/07 06:13:50;;;;;;;2.07;1.30;;;;;;;;;;4994998;28;20412;-69
2021/06/07 06:16:21;;;;;;;2.20;1.00;;;;;;;;;;4995668;28;20471;-69
2021/06/07 06:18:47;;;;;;;2.27;1.20;;;;;;;;;;4994782;28;20562;-68
2021/06/07 06:21:13;;;;;;;3.37;1.47;;;;;;;;;;4994302;28;20409;-70
2021/06/07 06:23:39;;;;;;;3.43;1.50;;;;;;;;;;4992493;28;20818;-68
2021/06/07 06:26:07;;;;;;;2.10;1.20;;;;;;;;;;4995492;28;20413;-69
2021/06/07 06:28:35;;;;;;;2.10;1.30;;;;;;;;;;4988773;28;20445;-69
2021/06/07 06:31:01;;;;;;;2.23;1.43;;;;;;;;;;4976019;28;20428;-69
2021/06/07 06:33:27;;;;;;;2.07;1.37;;;;;;;;;;4975781;28;20405;-69
2021/06/07 06:35:53;;;;;;;1.80;1.20;;;;;;;;;;4993373;28;20425;-69
2021/06/07 06:38:19;;;;;;;2.33;1.30;;;;;;;;;;4995202;28;20423;-69
2021/06/07 06:40:47;;;;;;;3.23;1.53;;;;;;;;;;4994260;28;20425;-68
2021/06/07 06:43:13;;;;;;;2.63;1.53;;;;;;;;;;4992621;28;20550;-68
2021/06/07 06:45:39;;;;;;;2.87;1.40;;;;;;;;;;4992236;28;20420;-69
2021/06/07 06:48:06;;;;;;;3.33;1.73;;;;;;;;;;4995348;28;20392;-69
2021/06/07 06:50:35;;;;;;;1.90;1.20;;;;;;;;;;4980024;28;20457;-69
2021/06/07 06:53:02;;;;;;;1.83;1.10;;;;;;;;;;4975378;28;20494;-69
2021/06/07 06:55:28;;;;;;;2.70;1.23;;;;;;;;;;4988473;28;20602;-69
2021/06/07 06:57:54;;;;;;;2.90;1.10;;;;;;;;;;4989184;28;20433;-71
2021/06/07 07:00:21;;;;;;;2.30;1.47;;;;;;;;;;4983495;28;20996;-69
2021/06/07 07:02:47;;;;;;;5.00;1.50;;;;;;;;;;4988928;28;20548;-69
2021/06/07 07:05:13;;;;;;;5.60;1.50;;;;;;;;;;4979597;28;20446;-70
2021/06/07 07:07:39;;;;;;;2.83;1.40;;;;;;;;;;4988087;28;20424;-71
2021/06/07 07:10:07;;;;;;;2.17;1.50;;;;;;;;;;4987757;28;20444;-69
2021/06/07 07:12:33;;;;;;;2.63;1.50;;;;;;;;;;4980780;28;20512;-71
2021/06/07 07:14:59;;;;;;;2.77;2.00;;;;;;;;;;4987948;28;20956;-71
2021/06/07 07:17:25;;;;;;;3.53;2.53;;;;;;;;;;4988716;28;20901;-71
2021/06/07 07:19:51;;;;;;;2.00;1.40;;;;;;;;;;4985287;28;20433;-75
2021/06/07 07:22:17;;;;;;;3.30;1.73;;;;;;;;;;4986948;28;20441;-71
2021/06/07 07:24:45;;;;;;;2.57;1.60;;;;;;;;;;4984431;28;20462;-72
2021/06/07 07:27:12;;;;;;;5.03;3.57;;;;;;;;;;4988084;28;20400;-70
2021/06/07 07:29:39;;;;;;;3.40;1.60;;;;;;;;;;4987520;28;20448;-71
2021/06/07 07:32:06;;;;;;;4.07;1.77;;;;;;;;;;4987508;28;20429;-71
2021/06/07 07:34:33;;;;;;;3.73;2.13;;;;;;;;;;5002606;28;20495;-73
2021/06/07 07:36:59;;;;;;;4.03;2.00;;;;;;;;;;4991640;28;20415;-70
2021/06/07 07:39:25;;;;;;;2.87;1.63;;;;;;;;;;4990161;28;20452;-70
2021/06/07 07:41:51;;;;;;;3.27;2.00;;;;;;;;;;4987803;28;20816;-70
2021/06/07 07:44:17;;;;;;;2.77;1.77;;;;;;;;;;4988698;28;20456;-70
2021/06/07 07:46:44;;;;;;;4.20;2.00;;;;;;;;;;4993124;28;20551;-70
2021/06/07 07:49:10;;;;;;;5.37;2.33;;;;;;;;;;4991184;28;20839;-70
2021/06/07 07:51:36;;;;;;;3.70;1.90;;;;;;;;;;4989282;28;20427;-70
2021/06/07 07:54:02;;;;;;;2.67;1.90;;;;;;;;;;4989129;28;20416;-71
2021/06/07 07:56:28;;;;;;;2.70;1.60;;;;;;;;;;4991987;28;20432;-70
2021/06/07 07:58:54;;;;;;;2.20;1.60;;;;;;;;;;4992263;28;20510;-70
2021/06/07 08:01:20;;;;;;;2.30;1.30;;;;;;;;;;4990661;28;21080;-70
2021/06/07 08:03:46;;;;;;;2.77;1.60;;;;;;;;;;4991065;28;20972;-70
2021/06/07 08:06:12;;;;;;;2.17;1.30;;;;;;;;;;4991388;28;20451;-70
2021/06/07 08:08:38;;;;;;;6.30;1.93;;;;;;;;;;4987061;28;20448;-70
2021/06/07 08:11:05;;;;;;;2.10;1.10;;;;;;;;;;4988275;28;20432;-70
2021/06/07 08:13:31;;;;;;;3.23;1.60;;;;;;;;;;4992351;28;20417;-70
2021/06/07 08:15:57;;;;;;;2.77;1.97;;;;;;;;;;4989225;28;20834;-71
2021/06/07 08:18:23;;;;;;;3.07;1.40;;;;;;;;;;4990107;28;20424;-70
2021/06/07 08:20:51;;;;;;;1.87;1.17;;;;;;;;;;4990773;28;20614;-71
2021/06/07 08:23:17;;;;;;;1.77;1.13;;;;;;;;;;4990138;28;20468;-71
2021/06/07 08:25:43;;;;;;;1.87;1.43;;;;;;;;;;4988866;28;20939;-72
2021/06/07 08:28:09;;;;;;;1.73;0.90;;;;;;;;;;4988185;28;20440;-70
2021/06/07 08:30:36;;;;;;;2.30;1.10;;;;;;;;;;4979509;28;20421;-70
2021/06/07 08:33:03;;;;;;;1.80;0.87;;;;;;;;;;4992394;28;20996;-70
2021/06/07 08:35:30;;;;;;;3.57;1.20;;;;;;;;;;4991191;28;20433;-74
2021/06/07 08:37:56;;;;;;;4.33;1.30;;;;;;;;;;4986247;28;20482;-72
2021/06/07 08:40:23;;;;;;;2.90;1.00;;;;;;;;;;4986326;28;20456;-70
2021/06/07 08:42:49;;;;;;;1.60;0.90;;;;;;;;;;4990751;28;20424;-70
2021/06/07 08:45:17;;;;;;;2.63;1.47;;;;;;;;;;4984555;28;20520;-70
2021/06/07 08:47:44;;;;;;;1.80;1.00;;;;;;;;;;4991262;28;20420;-70
2021/06/07 08:50:10;;;;;;;1.90;1.20;;;;;;;;;;4987909;28;20507;-70
2021/06/07 08:52:36;;;;;;;1.90;0.97;;;;;;;;;;4990047;28;20431;-70
2021/06/07 08:55:06;;;;;;;3.80;1.30;;;;;;;;;;4989104;28;20507;-73
2021/06/07 08:57:40;;;;;;;2.00;1.10;;;;;;;;;;4991543;28;20826;-70
2021/06/07 09:00:07;;;;;;;1.77;1.13;;;;;;;;;;4988949;28;20446;-72
2021/06/07 09:02:34;;;;;;;4.00;1.27;;;;;;;;;;4990268;28;20401;-70
2021/06/07 09:05:02;;;;;;;3.50;1.27;;;;;;;;;;4991451;28;20449;-75
2021/06/07 09:07:28;;;;;;;2.53;1.30;;;;;;;;;;4981238;28;20480;-70
2021/06/07 09:10:05;;;;;;;6.13;2.80;;;;;;;;;;4991450;28;20456;-70
2021/06/07 09:12:31;;;;;;;2.73;1.17;;;;;;;;;;4989257;28;20475;-70
2021/06/07 09:14:57;;;;;;;4.33;1.70;;;;;;;;;;4991864;28;20534;-70
2021/06/07 09:17:24;;;;;;;2.53;1.20;;;;;;;;;;4990907;28;20437;-70
2021/06/07 09:20:10;;;;;;;2.70;1.10;;;;;;;;;;4987531;28;20940;-70
2021/06/07 09:22:36;;;;;;;2.00;1.17;;;;;;;;;;4991121;28;20575;-71
2021/06/07 09:25:10;;;;;;;2.70;1.00;;;;;;;;;;4986011;28;20439;-70
2021/06/07 09:27:37;;;;;;;3.73;1.20;;;;;;;;;;4991335;28;20433;-69
2021/06/07 09:30:23;;;;;;;2.80;1.13;;;;;;;;;;4992196;28;20527;-70
2021/06/07 09:32:49;;;;;;;3.57;1.53;;;;;;;;;;4991626;28;20400;-70
2021/06/07 09:35:15;;;;;;;2.43;1.00;;;;;;;;;;4990616;28;20494;-72
2021/06/07 09:37:41;;;;;;;2.93;1.30;;;;;;;;;;4993084;28;20420;-70
2021/06/07 09:40:18;;;;;;;3.10;1.17;;;;;;;;;;4993878;28;20433;-70
2021/06/07 09:43:00;;;;;;;1.90;1.30;;;;;;;;;;4983770;28;20582;-70
2021/06/07 09:45:41;;;;;;;3.77;1.20;;;;;;;;;;4994052;28;20413;-71
2021/06/07 09:48:08;;;;;;;2.67;1.40;;;;;;;;;;4995057;28;20421;-70
2021/06/07 09:50:34;;;;;;;2.73;1.50;;;;;;;;;;4984875;28;20818;-70
2021/06/07 09:53:00;;;;;;;2.20;1.40;;;;;;;;;;4994915;28;20859;-70
2021/06/07 09:55:27;;;;;;;2.60;1.77;;;;;;;;;;4990227;28;20422;-69
2021/06/07 09:58:01;;;;;;;4.97;2.03;;;;;;;;;;4993409;28;20440;-70
2021/06/07 10:00:52;;;;;;;3.73;1.80;;;;;;;;;;4987521;28;20441;-71
2021/06/07 10:03:24;;;;;;;2.80;1.40;;;;;;;;;;4993752;28;20456;-70
2021/06/07 10:05:51;;;;;;;2.17;1.60;;;;;;;;;;4994125;28;20465;-70
2021/06/07 10:08:18;;;;;;;2.20;1.40;;;;;;;;;;4992946;28;20421;-71
2021/06/07 10:10:45;;;;;;;1.70;1.27;;;;;;;;;;4993671;28;20432;-70
2021/06/07 10:13:12;;;;;;;2.77;1.40;;;;;;;;;;4993205;28;20788;-70
2021/06/07 10:15:42;;;;;;;2.57;1.60;;;;;;;;;;4994690;28;21252;-70
2021/06/07 10:18:16;;;;;;;2.47;1.57;;;;;;;;;;4993381;28;20547;-70
2021/06/07 10:20:47;;;;;;;2.83;1.50;;;;;;;;;;4991627;28;20440;-70
2021/06/07 10:23:13;;;;;;;3.30;1.60;;;;;;;;;;4979243;28;20461;-70
2021/06/07 10:25:39;;;;;;;3.23;2.17;;;;;;;;;;4994929;28;20415;-70
2021/06/07 10:28:05;;;;;;;3.40;2.00;;;;;;;;;;4983467;28;20431;-70
2021/06/07 10:30:37;;;;;;;2.00;1.60;;;;;;;;;;4993227;28;20436;-70
2021/06/07 10:33:23;;;;;;;2.23;1.70;;;;;;;;;;4991042;28;20444;-70
2021/06/07 10:35:49;;;;;;;2.93;1.90;;;;;;;;;;4993822;28;20495;-70
2021/06/07 10:38:27;;;;;;;2.90;2.07;;;;;;;;;;4996763;28;20428;-70
2021/06/07 10:41:13;;;;;;;4.63;2.13;;;;;;;;;;4996145;28;20416;-71
2021/06/07 10:43:43;;;;;;;3.27;2.00;;;;;;;;;;4992368;28;20820;-70
2021/06/07 10:46:24;;;;;;;4.20;1.77;;;;;;;;;;4992492;28;20440;-71
2021/06/07 10:48:52;;;;;;;5.23;1.70;;;;;;;;;;4986716;28;20510;-70
2021/06/07 10:51:20;;;;;;;2.13;1.60;;;;;;;;;;4990417;28;20420;-70
2021/06/07 10:53:46;;;;;;;5.83;2.13;;;;;;;;;;4991684;28;20464;-70
2021/06/07 10:56:13;;;;;;;4.40;1.60;;;;;;;;;;4993897;28;20788;-70
2021/06/07 10:58:59;;;;;;;3.20;2.23;;;;;;;;;;4992664;28;20814;-70
2021/06/07 11:01:43;;;;;;;2.93;1.83;;;;;;;;;;4977440;28;20426;-69
2021/06/07 11:04:09;;;;;;;2.80;1.87;;;;;;;;;;4991638;28;20547;-70
2021/06/07 11:06:49;;;;;;;4.30;1.70;;;;;;;;;;4989545;28;20432;-70
2021/06/07 11:09:15;;;;;;;3.67;2.37;;;;;;;;;;4989174;28;20440;-69
2021/06/07 11:11:47;;;;;;;3.97;2.37;;;;;;;;;;4992124;28;20428;-69
2021/06/07 11:14:14;;;;;;;2.70;2.00;;;;;;;;;;4994038;28;20539;-70
2021/06/07 11:16:46;;;;;;;3.83;2.07;;;;;;;;;;4990870;28;20464;-70
2021/06/07 11:19:17;;;;;;;3.00;1.97;;;;;;;;;;4992232;28;20476;-70
2021/06/07 11:21:45;;;;;;;2.40;1.53;;;;;;;;;;4991443;28;20463;-69
2021/06/07 11:24:24;;;;;;;1.80;1.37;;;;;;;;;;4992911;28;20462;-71
2021/06/07 11:26:50;;;;;;;3.07;1.60;;;;;;;;;;4984754;28;20432;-70
2021/06/07 11:29:16;;;;;;;2.60;1.83;;;;;;;;;;4993027;28;20432;-69
2021/06/07 11:31:43;;;;;;;2.00;1.43;;;;;;;;;;4991246;28;20511;-70
2021/06/07 11:34:11;;;;;;;4.20;2.10;;;;;;;;;;4992851;28;20467;-70
2021/06/07 11:36:40;;;;;;;3.27;2.23;;;;;;;;;;4993119;28;20424;-70
2021/06/07 11:39:07;;;;;;;2.40;1.97;;;;;;;;;;4991750;28;20441;-71
2021/06/07 11:41:43;;;;;;;2.60;2.10;;;;;;;;;;4991125;28;20458;-70
2021/06/07 11:44:09;;;;;;;2.43;1.80;;;;;;;;;;4992659;28;20452;-70
2021/06/07 11:46:38;;;;;;;3.20;2.10;;;;;;;;;;5016644;28;20647;-70
2021/06/07 11:49:05;;;;;;;2.93;2.47;;;;;;;;;;4989671;28;20547;-69
2021/06/07 11:51:32;;;;;;;2.83;2.17;;;;;;;;;;4990551;28;20438;-70
2021/06/07 11:53:58;;;;;;;4.80;2.37;;;;;;;;;;4991449;28;20424;-70
2021/06/07 11:56:24;;;;;;;2.93;1.60;;;;;;;;;;4990341;28;20441;-70
2021/06/07 11:58:51;;;;;;;4.37;2.67;;;;;;;;;;4989708;28;20520;-70
2021/06/07 12:01:17;;;;;;;4.30;2.67;;;;;;;;;;4990105;28;20749;-70
2021/06/07 12:03:44;;;;;;;2.33;1.83;;;;;;;;;;4991362;28;20468;-69
2021/06/07 12:06:10;;;;;;;3.20;2.87;;;;;;;;;;4990821;28;20811;-69
2021/06/07 12:08:37;;;;;;;4.30;2.77;;;;;;;;;;4992035;28;20449;-69
2021/06/07 12:11:04;;;;;;;4.37;3.17;;;;;;;;;;4998977;28;20413;-69
2021/06/07 12:13:34;;;;;;;2.73;2.43;;;;;;;;;;4994983;28;20430;-69
2021/06/07 12:16:07;;;;;;;4.50;2.30;;;;;;;;;;5001044;28;20518;-69
2021/06/07 12:18:33;;;;;;;2.90;2.17;;;;;;;;;;4993080;28;20464;-69
2021/06/07 12:21:11;;;;;;;9.73;2.83;;;;;;;;;;5001019;28;20949;-69
2021/06/07 12:23:44;;;;;;;2.70;2.33;;;;;;;;;;4995952;28;20463;-70
2021/06/07 12:29:20;;;;;;;3.20;2.50;;;;;;;;;;4992320;28;21035;-70
2021/06/07 12:32:16;;;;;;;2.73;2.10;;;;;;;;;;4977838;28;20416;-70
2021/06/07 12:35:21;;;;;;;3.43;2.20;;;;;;;;;;4973590;28;20423;-69
2021/06/07 12:37:51;;;;;;;3.00;2.40;;;;;;;;;;4967151;28;20820;-69
2021/06/07 12:40:19;;;;;;;3.33;2.33;;;;;;;;;;4968374;28;20448;-69
2021/06/07 12:42:47;;;;;;;2.90;2.50;;;;;;;;;;4979974;28;20921;-69
2021/06/07 12:45:19;;;;;;;8.37;3.70;;;;;;;;;;4997344;28;20865;-68
2021/06/07 12:47:45;;;;;;;3.53;3.10;;;;;;;;;;4990876;28;20435;-69
2021/06/07 12:50:11;;;;;;;4.80;3.20;;;;;;;;;;4995704;28;20456;-68
2021/06/07 12:52:38;;;;;;;3.40;2.80;;;;;;;;;;4998372;28;20505;-69
2021/06/07 12:55:05;;;;;;;2.80;2.30;;;;;;;;;;4995998;28;20450;-68
2021/06/07 12:57:31;;;;;;;3.57;2.90;;;;;;;;;;4982449;28;20436;-68
2021/06/07 12:59:57;;;;;;;2.63;2.23;;;;;;;;;;4993640;28;20448;-70
2021/06/07 13:02:36;;;;;;;2.93;2.50;;;;;;;;;;4995466;28;20434;-69
2021/06/07 13:05:02;;;;;;;3.17;2.80;;;;;;;;;;4994026;28;20540;-69
2021/06/07 13:07:29;;;;;;;2.80;2.40;;;;;;;;;;4999377;28;20510;-68
2021/06/07 13:09:56;;;;;;;3.03;2.70;;;;;;;;;;5004992;28;20429;-69
2021/06/07 13:12:24;;;;;;;3.37;2.90;;;;;;;;;;4995373;28;20433;-69
2021/06/07 13:14:51;;;;;;;3.43;2.50;;;;;;;;;;4990577;28;20761;-69
2021/06/07 13:17:19;;;;;;;3.50;2.77;;;;;;;;;;5008613;28;20428;-69
2021/06/07 13:19:50;;;;;;;7.03;3.80;;;;;;;;;;5000682;28;20857;-69
2021/06/07 13:22:17;;;;;;;3.80;2.90;;;;;;;;;;5000036;28;20939;-69
2021/06/07 13:24:44;;;;;;;14.57;4.80;;;;;;;;;;5000715;28;20483;-69
2021/06/07 13:27:29;;;;;;;3.50;2.87;;;;;;;;;;5007889;28;20466;-69
2021/06/07 13:30:15;;;;;;;3.80;3.40;;;;;;;;;;5008089;28;20436;-69
2021/06/07 13:32:42;;;;;;;3.10;2.80;;;;;;;;;;4990478;28;20807;-69
2021/06/07 13:35:10;;;;;;;3.43;3.00;;;;;;;;;;4997417;28;20432;-69
2021/06/07 13:37:44;;;;;;;4.20;3.50;;;;;;;;;;4993108;28;20964;-70
2021/06/07 13:40:10;;;;;;;3.80;3.03;;;;;;;;;;4993251;28;20936;-69
2021/06/07 13:42:41;;;;;;;4.90;3.27;;;;;;;;;;5001138;28;20447;-69
2021/06/07 13:45:08;;;;;;;3.27;2.87;;;;;;;;;;4996784;28;20482;-68
2021/06/07 13:47:38;;;;;;;3.63;3.33;;;;;;;;;;4993378;28;20423;-69
2021/06/07 13:50:06;;;;;;;4.37;3.60;;;;;;;;;;5002425;28;20873;-69
2021/06/07 13:52:40;;;;;;;4.50;3.30;;;;;;;;;;5004317;28;20492;-69
2021/06/07 13:55:23;;;;;;;2.80;2.50;;;;;;;;;;5001259;28;20413;-69
2021/06/07 13:57:56;;;;;;;5.10;3.10;;;;;;;;;;4993577;28;20424;-70
2021/06/07 14:00:22;;;;;;;4.53;2.77;;;;;;;;;;5004150;28;20435;-69
2021/06/07 14:02:48;;;;;;;7.10;3.03;;;;;;;;;;4993323;28;20518;-70
2021/06/07 14:05:18;;;;;;;3.30;3.00;;;;;;;;;;4990442;28;20963;-70
2021/06/07 14:07:44;;;;;;;3.60;3.07;;;;;;;;;;4992671;28;20429;-69
2021/06/07 14:10:10;;;;;;;7.33;3.17;;;;;;;;;;4996491;28;20772;-69
2021/06/07 14:12:36;;;;;;;3.10;2.80;;;;;;;;;;5001464;28;20420;-69
2021/06/07 14:15:02;;;;;;;2.97;2.23;;;;;;;;;;4999082;28;20415;-70
2021/06/07 14:17:28;;;;;;;3.30;2.67;;;;;;;;;;4997029;28;20507;-69
2021/06/07 14:19:54;;;;;;;3.30;2.80;;;;;;;;;;5001153;28;20478;-69
2021/06/07 14:24:47;;;;;;;3.00;2.60;;;;;;;;;;5008798;22;20500;-66
2021/06/07 14:27:13;;;;;;;3.37;3.00;;;;;;;;;;5011211;28;20420;-65
2021/06/07 14:29:41;;;;;;;3.80;3.30;;;;;;;;;;5012720;28;20427;-65
2021/06/07 14:32:08;;;;;;;2.93;2.40;;;;;;;;;;5009785;28;20490;-66
2021/06/07 14:34:34;;;;;;;6.17;3.20;;;;;;;;;;5000239;28;20464;-66
2021/06/07 14:37:00;;;;;;;3.77;3.03;;;;;;;;;;4988148;28;20414;-66
2021/06/07 14:39:26;;;;;;;3.27;2.70;;;;;;;;;;4991848;28;20435;-66
2021/06/07 14:41:52;;;;;;;3.77;2.50;;;;;;;;;;4993830;28;20498;-66
2021/06/07 14:44:19;;;;;;;3.40;3.00;;;;;;;;;;4988333;28;20472;-66
2021/06/07 14:46:45;;;;;;;5.40;3.07;;;;;;;;;;4993507;28;20467;-66
2021/06/07 14:49:11;;;;;;;3.60;2.90;;;;;;;;;;4992996;28;20479;-66
2021/06/07 14:51:37;;;;;;;3.07;2.77;;;;;;;;;;4994847;28;20432;-66
2021/06/07 14:54:04;;;;;;;4.77;3.77;;;;;;;;;;4991851;28;20440;-66